createdAt,value
2017-09-09T00:00:26.298Z,10.82
2017-09-09T00:02:52.959Z,8.70
2017-09-09T00:05:19.615Z,8.02
2017-09-09T00:07:46.275Z,10.82
2017-09-09T00:10:12.932Z,6.35
2017-09-09T00:12:39.590Z,9.50
2017-09-09T00:15:06.244Z,8.15
2017-09-09T00:17:32.899Z,8.25
2017-09-09T00:19:59.588Z,10.23
2017-09-09T00:22:26.251Z,7.45
2017-09-09T00:24:52.940Z,9.27
2017-09-09T00:27:19.599Z,6.75
2017-09-09T00:29:46.277Z,8.07
2017-09-09T00:32:12.931Z,8.27
2017-09-09T00:34:39.616Z,7.80
2017-09-09T00:37:06.267Z,9.23
2017-09-09T00:39:32.924Z,6.70
2017-09-09T00:41:59.575Z,11.48
2017-09-09T00:44:26.226Z,7.03
2017-09-09T00:46:52.888Z,9.73
2017-09-09T00:49:19.547Z,9.80
2017-09-09T00:51:46.223Z,9.13
2017-09-09T00:54:12.876Z,6.80
2017-09-09T00:56:39.562Z,7.07
2017-09-09T00:59:06.219Z,8.13
2017-09-09T01:01:32.903Z,8.15
2017-09-09T01:03:59.564Z,7.15
2017-09-09T01:06:26.222Z,10.23
2017-09-09T01:08:52.879Z,7.12
2017-09-09T01:11:19.549Z,8.13
2017-09-09T01:13:46.208Z,6.53
2017-09-09T01:16:12.865Z,7.40
2017-09-09T01:18:39.551Z,6.35
2017-09-09T01:21:06.213Z,10.10
2017-09-09T01:23:32.895Z,9.18
2017-09-09T01:25:59.551Z,8.15
2017-09-09T01:28:26.244Z,7.70
2017-09-09T01:30:52.899Z,7.25
2017-09-09T01:33:19.579Z,7.32
2017-09-09T01:35:46.227Z,7.47
2017-09-09T01:38:12.879Z,9.93
2017-09-09T01:40:39.544Z,9.70
2017-09-09T01:43:06.199Z,7.45
2017-09-09T01:45:32.851Z,8.48
2017-09-09T01:47:59.516Z,8.85
2017-09-09T01:50:26.207Z,7.75
2017-09-09T01:52:52.877Z,8.65
2017-09-09T01:55:19.563Z,12.13
2017-09-09T01:57:46.214Z,7.47
2017-09-09T02:00:12.896Z,8.15
2017-09-09T02:02:39.557Z,8.60
2017-09-09T02:05:06.243Z,9.25
2017-09-09T02:07:32.896Z,8.20
2017-09-09T02:09:59.547Z,9.18
2017-09-09T02:12:26.217Z,10.98
2017-09-09T02:14:52.875Z,8.13
2017-09-09T02:17:19.535Z,10.75
2017-09-09T02:19:46.192Z,8.27
2017-09-09T02:22:12.872Z,7.75
2017-09-09T02:24:39.531Z,8.02
2017-09-09T02:27:06.211Z,8.70
2017-09-09T02:29:32.867Z,7.97
2017-09-09T02:31:59.563Z,8.65
2017-09-09T02:34:26.215Z,9.55
2017-09-09T02:36:52.876Z,11.30
2017-09-09T02:39:19.539Z,11.32
2017-09-09T02:41:46.471Z,10.30
2017-09-09T02:44:13.127Z,8.35
2017-09-09T02:46:39.782Z,8.77
2017-09-09T02:49:06.440Z,8.93
2017-09-09T02:51:33.104Z,13.60
2017-09-09T02:53:59.792Z,11.40
2017-09-09T02:56:26.448Z,9.05
2017-09-09T02:58:53.140Z,11.63
2017-09-09T03:01:19.800Z,9.85
2017-09-09T03:03:46.466Z,10.48
2017-09-09T03:06:13.127Z,11.98
2017-09-09T03:08:39.788Z,8.35
2017-09-09T03:11:06.439Z,8.75
2017-09-09T03:13:33.095Z,10.98
2017-09-09T03:15:59.747Z,9.18
2017-09-09T03:18:26.400Z,7.93
2017-09-09T03:20:53.060Z,9.52
2017-09-09T03:23:19.721Z,8.65
2017-09-09T03:25:46.379Z,9.65
2017-09-09T03:28:13.039Z,9.45
2017-09-09T03:30:39.725Z,10.20
2017-09-09T03:33:06.399Z,11.35
2017-09-09T03:35:33.091Z,9.45
2017-09-09T03:37:59.752Z,7.97
2017-09-09T03:40:26.408Z,8.50
2017-09-09T03:42:53.068Z,7.53
2017-09-09T03:45:19.724Z,8.82
2017-09-09T03:47:46.372Z,7.90
2017-09-09T03:50:13.023Z,8.35
2017-09-09T03:52:39.670Z,7.90
2017-09-09T03:55:06.319Z,9.48
2017-09-09T03:57:32.970Z,8.00
2017-09-09T03:59:59.628Z,7.78
2017-09-09T04:02:26.279Z,7.55
2017-09-09T04:04:52.930Z,6.85
2017-09-09T04:07:19.612Z,7.00
2017-09-09T04:09:46.263Z,6.85
2017-09-09T04:12:12.948Z,5.40
2017-09-09T04:14:39.612Z,6.03
2017-09-09T04:17:06.269Z,5.53
2017-09-09T04:19:32.928Z,8.70
2017-09-09T04:21:59.592Z,6.62
2017-09-09T04:24:26.246Z,6.18
2017-09-09T04:26:52.898Z,9.15
2017-09-09T04:29:19.555Z,7.15
2017-09-09T04:31:46.212Z,5.90
2017-09-09T04:34:12.879Z,6.32
2017-09-09T04:36:39.539Z,5.90
2017-09-09T04:39:06.195Z,5.15
2017-09-09T04:41:32.847Z,6.60
2017-09-09T04:43:59.499Z,5.70
2017-09-09T04:46:26.153Z,5.50
2017-09-09T04:48:52.804Z,6.75
2017-09-09T04:51:19.459Z,5.70
2017-09-09T04:53:46.115Z,5.87
2017-09-09T04:56:12.792Z,6.07
2017-09-09T04:58:39.447Z,6.12
2017-09-09T05:01:06.127Z,5.97
2017-09-09T05:03:32.779Z,5.55
2017-09-09T05:05:59.471Z,6.22
2017-09-09T05:08:26.139Z,6.05
2017-09-09T05:10:52.811Z,6.18
2017-09-09T05:13:19.480Z,6.20
2017-09-09T05:15:46.155Z,6.35
2017-09-09T05:18:12.812Z,7.00
2017-09-09T05:20:39.500Z,6.97
2017-09-09T05:23:06.156Z,5.75
2017-09-09T05:25:32.806Z,6.25
2017-09-09T05:27:59.463Z,5.93
2017-09-09T05:30:26.115Z,5.78
2017-09-09T05:32:52.772Z,5.43
2017-09-09T05:35:19.532Z,7.20
2017-09-09T05:37:46.227Z,6.82
2017-09-09T05:40:12.887Z,5.78
2017-09-09T05:42:39.571Z,6.25
2017-09-09T05:45:06.232Z,9.27
2017-09-09T05:47:32.916Z,6.35
2017-09-09T05:49:59.574Z,5.65
2017-09-09T05:52:26.264Z,6.75
2017-09-09T05:54:52.915Z,6.95
2017-09-09T05:57:19.615Z,7.32
2017-09-09T05:59:46.271Z,7.10
2017-09-09T06:02:12.932Z,7.72
2017-09-09T06:04:39.596Z,12.55
2017-09-09T06:07:06.251Z,8.88
2017-09-09T06:09:32.912Z,8.30
2017-09-09T06:11:59.571Z,11.07
2017-09-09T06:14:26.247Z,8.65
2017-09-09T06:16:52.905Z,8.85
2017-09-09T06:19:19.623Z,7.65
2017-09-09T06:21:46.283Z,11.80
2017-09-09T06:24:12.959Z,12.00
2017-09-09T06:26:39.624Z,10.95
2017-09-09T06:29:06.301Z,9.48
2017-09-09T06:31:32.963Z,7.85
2017-09-09T06:33:59.614Z,8.88
2017-09-09T06:36:26.267Z,9.90
2017-09-09T06:38:52.920Z,9.85
2017-09-09T06:41:19.599Z,10.23
2017-09-09T06:43:46.257Z,9.52
2017-09-09T06:46:12.935Z,9.95
2017-09-09T06:48:39.592Z,8.40
2017-09-09T06:51:06.251Z,9.00
2017-09-09T06:53:32.908Z,8.93
2017-09-09T06:55:59.562Z,8.25
2017-09-09T06:58:26.220Z,9.30
2017-09-09T07:00:52.886Z,10.65
2017-09-09T07:03:19.543Z,9.85
2017-09-09T07:05:46.198Z,10.80
2017-09-09T07:08:12.850Z,8.35
2017-09-09T07:10:39.513Z,7.60
2017-09-09T07:13:06.212Z,9.20
2017-09-09T07:15:32.876Z,7.85
2017-09-09T07:17:59.556Z,8.85
2017-09-09T07:20:26.223Z,7.15
2017-09-09T07:22:52.884Z,7.43
2017-09-09T07:25:19.538Z,8.63
2017-09-09T07:27:46.187Z,7.82
2017-09-09T07:30:12.839Z,7.30
2017-09-09T07:32:39.492Z,9.05
2017-09-09T07:35:06.147Z,8.35
2017-09-09T07:37:32.799Z,8.00
2017-09-09T07:39:59.456Z,7.47
2017-09-09T07:42:26.139Z,8.10
2017-09-09T07:44:52.798Z,7.45
2017-09-09T07:47:19.464Z,7.15
2017-09-09T07:49:46.142Z,7.18
2017-09-09T07:52:12.795Z,7.78
2017-09-09T07:54:39.499Z,7.50
2017-09-09T07:57:06.155Z,6.40
2017-09-09T07:59:32.812Z,6.65
2017-09-09T08:01:59.466Z,7.18
2017-09-09T08:04:26.123Z,7.18
2017-09-09T08:06:52.779Z,6.80
2017-09-09T08:09:19.435Z,6.10
2017-09-09T08:11:46.091Z,7.10
2017-09-09T08:14:12.747Z,6.05
2017-09-09T08:16:39.432Z,8.18
2017-09-09T08:19:06.131Z,6.20
2017-09-09T08:21:32.816Z,6.97
2017-09-09T08:23:59.479Z,5.10
2017-09-09T08:26:26.136Z,7.35
2017-09-09T08:28:52.801Z,5.32
2017-09-09T08:31:19.459Z,5.75
2017-09-09T08:33:46.118Z,6.10
2017-09-09T08:36:13.044Z,7.57
2017-09-09T08:38:39.691Z,7.60
2017-09-09T08:41:06.343Z,5.72
2017-09-09T08:43:33.061Z,5.78
2017-09-09T08:45:59.720Z,5.45
2017-09-09T08:48:26.422Z,9.27
2017-09-09T08:50:53.111Z,6.37
2017-09-09T08:53:19.803Z,6.43
2017-09-09T08:55:46.467Z,4.95
2017-09-09T08:58:13.171Z,5.37
2017-09-09T09:00:39.823Z,4.97
2017-09-09T09:03:06.488Z,5.20
2017-09-09T09:05:33.156Z,3.60
2017-09-09T09:07:59.811Z,3.92
2017-09-09T09:10:26.478Z,3.30
2017-09-09T09:12:53.134Z,2.90
2017-09-09T09:15:19.825Z,2.75
2017-09-09T09:17:46.483Z,3.50
2017-09-09T09:20:13.167Z,2.95
2017-09-09T09:22:39.828Z,3.40
2017-09-09T09:25:06.523Z,2.60
2017-09-09T09:27:33.216Z,2.17
2017-09-09T09:29:59.892Z,2.80
2017-09-09T09:32:26.593Z,2.72
2017-09-09T09:34:53.243Z,2.75
2017-09-09T09:37:19.923Z,2.70
2017-09-09T09:39:46.584Z,3.12
2017-09-09T09:42:13.267Z,3.58
2017-09-09T09:44:39.925Z,3.10
2017-09-09T09:47:06.623Z,3.85
2017-09-09T09:49:33.279Z,2.53
2017-09-09T09:51:59.967Z,2.90
2017-09-09T09:54:26.669Z,3.42
2017-09-09T09:56:53.328Z,2.72
2017-09-09T09:59:19.991Z,3.60
2017-09-09T10:01:46.652Z,3.28
2017-09-09T10:04:13.334Z,3.83
2017-09-09T10:06:39.990Z,3.10
2017-09-09T10:09:06.667Z,3.80
2017-09-09T10:11:33.324Z,3.97
2017-09-09T10:14:00.004Z,3.40
2017-09-09T10:16:26.660Z,4.68
2017-09-09T10:18:53.343Z,3.60
2017-09-09T10:21:20.008Z,3.40
2017-09-09T10:23:46.690Z,3.62
2017-09-09T10:26:16.083Z,3.53
2017-09-09T10:28:42.775Z,3.30
2017-09-09T10:31:09.436Z,3.20
2017-09-09T10:33:36.092Z,3.47
2017-09-09T10:36:02.772Z,3.10
2017-09-09T10:38:29.437Z,3.10
2017-09-09T10:40:56.099Z,3.50
2017-09-09T10:43:22.757Z,3.50
2017-09-09T10:45:49.407Z,3.63
2017-09-09T10:48:16.064Z,4.00
2017-09-09T10:50:42.739Z,3.10
2017-09-09T10:53:09.399Z,3.47
2017-09-09T10:55:36.106Z,4.00
2017-09-09T10:58:02.763Z,4.17
2017-09-09T11:00:29.415Z,4.50
2017-09-09T11:02:56.071Z,3.90
2017-09-09T11:05:22.735Z,4.03
2017-09-09T11:07:49.395Z,4.33
2017-09-09T11:10:16.060Z,4.40
2017-09-09T11:12:42.721Z,4.20
2017-09-09T11:15:09.371Z,4.70
2017-09-09T11:17:36.028Z,4.50
2017-09-09T11:20:02.684Z,4.57
2017-09-09T11:22:29.347Z,4.83
2017-09-09T11:24:56.003Z,3.80
2017-09-09T11:27:22.696Z,4.40
2017-09-09T11:29:49.347Z,3.90
2017-09-09T11:32:16.004Z,4.30
2017-09-09T11:34:42.743Z,4.70
2017-09-09T11:37:09.404Z,4.17
2017-09-09T11:39:36.056Z,4.43
2017-09-09T11:42:02.712Z,3.93
2017-09-09T11:44:29.372Z,3.30
2017-09-09T11:46:56.027Z,4.00
2017-09-09T11:49:22.695Z,4.50
2017-09-09T11:51:49.352Z,3.70
2017-09-09T11:54:16.004Z,3.60
2017-09-09T11:56:42.675Z,3.60
2017-09-09T11:59:09.332Z,3.67
2017-09-09T12:01:35.991Z,4.20
2017-09-09T12:04:02.643Z,5.20
2017-09-09T12:06:29.304Z,4.10
2017-09-09T12:08:55.976Z,3.70
2017-09-09T12:11:22.660Z,4.90
2017-09-09T12:13:49.344Z,3.80
2017-09-09T12:16:16.023Z,3.50
2017-09-09T12:18:42.684Z,3.80
2017-09-09T12:21:09.364Z,3.70
2017-09-09T12:23:36.016Z,3.97
2017-09-09T12:26:02.669Z,4.20
2017-09-09T12:28:29.319Z,3.63
2017-09-09T12:30:55.976Z,4.17
2017-09-09T12:33:22.660Z,6.40
2017-09-09T12:35:49.320Z,4.40
2017-09-09T12:38:15.995Z,3.93
2017-09-09T12:40:42.644Z,3.67
2017-09-09T12:43:09.318Z,3.80
2017-09-09T12:45:35.967Z,4.33
2017-09-09T12:48:02.655Z,4.57
2017-09-09T12:50:29.302Z,3.47
2017-09-09T12:52:55.960Z,3.67
2017-09-09T12:55:22.616Z,4.20
2017-09-09T12:57:49.277Z,4.10
2017-09-09T13:00:15.937Z,4.20
2017-09-09T13:02:42.588Z,4.50
2017-09-09T13:05:09.281Z,4.32
2017-09-09T13:07:35.947Z,4.68
2017-09-09T13:10:02.636Z,4.75
2017-09-09T13:12:29.308Z,4.30
2017-09-09T13:14:56.008Z,5.45
2017-09-09T13:17:22.675Z,4.75
2017-09-09T13:19:49.399Z,4.72
2017-09-09T13:22:16.065Z,4.65
2017-09-09T13:24:42.731Z,5.00
2017-09-09T13:27:09.403Z,7.68
2017-09-09T13:29:36.078Z,5.10
2017-09-09T13:32:02.784Z,4.80
2017-09-09T13:34:29.452Z,4.90
2017-09-09T13:36:56.144Z,4.50
2017-09-09T13:39:22.815Z,4.25
2017-09-09T13:41:49.483Z,5.40
2017-09-09T13:44:16.171Z,4.10
2017-09-09T13:46:42.836Z,3.83
2017-09-09T13:49:09.507Z,3.95
2017-09-09T13:51:36.195Z,3.50
2017-09-09T13:54:02.855Z,3.85
2017-09-09T13:56:29.544Z,3.12
2017-09-09T13:58:56.212Z,3.55
2017-09-09T14:01:22.919Z,3.90
2017-09-09T14:03:49.584Z,3.78
2017-09-09T14:06:16.243Z,3.10
2017-09-09T14:08:42.908Z,6.47
2017-09-09T14:11:09.571Z,3.10
2017-09-09T14:13:36.266Z,3.12
2017-09-09T14:16:02.969Z,3.15
2017-09-09T14:18:29.632Z,3.33
2017-09-09T14:20:56.295Z,3.08
2017-09-09T14:23:22.996Z,3.05
2017-09-09T14:25:49.651Z,3.25
2017-09-09T14:28:16.351Z,3.28
2017-09-09T14:30:43.028Z,3.22
2017-09-09T14:33:09.737Z,3.15
2017-09-09T14:35:36.403Z,3.60
2017-09-09T14:38:03.067Z,3.33
2017-09-09T14:40:29.755Z,3.00
2017-09-09T14:42:56.411Z,2.92
2017-09-09T14:45:23.075Z,2.95
2017-09-09T14:47:49.735Z,2.90
2017-09-09T14:50:16.401Z,3.15
2017-09-09T14:52:43.064Z,3.10
2017-09-09T14:55:09.755Z,4.10
2017-09-09T14:57:36.420Z,3.58
2017-09-09T15:00:03.117Z,3.00
2017-09-09T15:02:29.786Z,3.20
2017-09-09T15:04:56.466Z,2.97
2017-09-09T15:07:23.139Z,2.80
2017-09-09T15:09:49.808Z,4.62
2017-09-09T15:12:16.467Z,3.10
2017-09-09T15:14:43.123Z,3.37
2017-09-09T15:17:09.791Z,3.03
2017-09-09T15:19:36.464Z,3.65
2017-09-09T15:22:03.128Z,3.80
2017-09-09T15:24:29.808Z,3.62
2017-09-09T15:26:56.477Z,3.42
2017-09-09T15:29:23.144Z,3.30
2017-09-09T15:31:49.809Z,3.22
2017-09-09T15:34:16.472Z,5.72
2017-09-09T15:36:43.155Z,2.83
2017-09-09T15:39:09.827Z,3.22
2017-09-09T15:41:36.487Z,3.60
2017-09-09T15:44:03.146Z,3.10
2017-09-09T15:46:29.807Z,3.15
2017-09-09T15:48:56.612Z,2.83
2017-09-09T15:51:23.278Z,3.55
2017-09-09T15:53:49.938Z,3.78
2017-09-09T15:56:16.600Z,3.35
2017-09-09T15:58:43.263Z,5.05
2017-09-09T16:01:09.932Z,3.53
2017-09-09T16:03:36.635Z,3.65
2017-09-09T16:06:03.295Z,3.40
2017-09-09T16:08:29.959Z,3.70
2017-09-09T16:10:56.644Z,3.10
2017-09-09T16:13:23.314Z,3.40
2017-09-09T16:15:49.995Z,3.62
2017-09-09T16:18:16.655Z,3.40
2017-09-09T16:20:43.339Z,4.32
2017-09-09T16:23:10.008Z,5.20
2017-09-09T16:25:36.707Z,5.32
2017-09-09T16:28:03.394Z,5.28
2017-09-09T16:30:30.055Z,4.03
2017-09-09T16:32:56.719Z,4.30
2017-09-09T16:35:23.395Z,4.50
2017-09-09T16:37:50.072Z,4.53
2017-09-09T16:40:16.727Z,4.72
2017-09-09T16:42:43.407Z,4.78
2017-09-09T16:45:10.073Z,5.10
2017-09-09T16:47:36.755Z,5.50
2017-09-09T16:50:03.535Z,5.75
2017-09-09T16:52:30.211Z,5.60
2017-09-09T16:54:56.862Z,6.43
2017-09-09T16:57:23.547Z,6.22
2017-09-09T16:59:50.199Z,6.50
2017-09-09T17:02:16.857Z,6.12
2017-09-09T17:04:43.516Z,5.65
2017-09-09T17:07:10.176Z,4.32
2017-09-09T17:09:36.929Z,3.87
2017-09-09T17:12:03.589Z,3.67
2017-09-09T17:14:30.278Z,4.20
2017-09-09T17:16:56.936Z,4.57
2017-09-09T17:19:23.619Z,4.30
2017-09-09T17:21:50.267Z,4.18
2017-09-09T17:24:16.944Z,4.40
2017-09-09T17:26:43.595Z,4.53
2017-09-09T17:29:10.277Z,4.57
2017-09-09T17:31:36.936Z,4.97
2017-09-09T17:34:03.632Z,5.00
2017-09-09T17:36:30.336Z,4.75
2017-09-09T17:38:56.999Z,4.10
2017-09-09T17:41:23.660Z,4.03
2017-09-09T17:43:50.328Z,3.95
2017-09-09T17:46:17.036Z,3.92
2017-09-09T17:48:43.691Z,4.00
2017-09-09T17:51:10.376Z,4.40
2017-09-09T17:53:37.031Z,3.90
2017-09-09T17:56:03.724Z,3.75
2017-09-09T17:58:30.382Z,3.45
2017-09-09T18:00:57.060Z,4.20
2017-09-09T18:03:23.716Z,7.15
2017-09-09T18:05:50.428Z,5.30
2017-09-09T18:08:17.088Z,5.53
2017-09-09T18:10:44.032Z,4.25
2017-09-09T18:13:10.684Z,5.20
2017-09-09T18:15:37.338Z,5.40
2017-09-09T18:18:04.061Z,6.32
2017-09-09T18:20:30.720Z,5.22
2017-09-09T18:22:57.407Z,5.55
2017-09-09T18:25:24.059Z,5.95
2017-09-09T18:27:50.751Z,5.78
2017-09-09T18:30:17.407Z,6.50
2017-09-09T18:32:44.084Z,6.18
2017-09-09T18:35:10.739Z,5.65
2017-09-09T18:37:37.528Z,7.10
2017-09-09T18:40:04.192Z,5.90
2017-09-09T18:42:30.848Z,6.22
2017-09-09T18:44:57.507Z,4.97
2017-09-09T18:47:24.169Z,4.75
2017-09-09T18:49:50.828Z,4.78
2017-09-09T18:52:17.484Z,5.00
2017-09-09T18:54:44.169Z,5.50
2017-09-09T18:57:10.834Z,5.47
2017-09-09T18:59:37.523Z,6.18
2017-09-09T19:02:04.175Z,6.70
2017-09-09T19:04:30.867Z,7.18
2017-09-09T19:06:57.523Z,8.20
2017-09-09T19:09:24.180Z,7.05
2017-09-09T19:11:50.835Z,7.30
2017-09-09T19:14:17.525Z,7.07
2017-09-09T19:16:44.189Z,7.30
2017-09-09T19:19:10.845Z,6.70
2017-09-09T19:21:37.507Z,6.05
2017-09-09T19:24:04.163Z,7.22
2017-09-09T19:26:30.839Z,7.97
2017-09-09T19:28:57.487Z,7.22
2017-09-09T19:31:24.180Z,6.57
2017-09-09T19:33:50.847Z,7.07
2017-09-09T19:36:17.535Z,8.85
2017-09-09T19:38:44.191Z,8.27
2017-09-09T19:41:10.887Z,8.02
2017-09-09T19:43:37.543Z,8.95
2017-09-09T19:46:04.200Z,8.90
2017-09-09T19:48:30.865Z,8.45
2017-09-09T19:50:57.531Z,11.73
2017-09-09T19:53:24.187Z,8.93
2017-09-09T19:55:50.839Z,9.85
2017-09-09T19:58:17.487Z,9.02
2017-09-09T20:00:44.151Z,11.23
2017-09-09T20:03:10.811Z,10.93
2017-09-09T20:05:37.467Z,9.10
2017-09-09T20:08:04.171Z,10.13
2017-09-09T20:10:30.831Z,10.20
2017-09-09T20:12:57.491Z,15.18
2017-09-09T20:15:24.199Z,9.68
2017-09-09T20:17:50.855Z,10.15
2017-09-09T20:20:17.507Z,9.02
2017-09-09T20:22:44.184Z,10.10
2017-09-09T20:25:10.842Z,14.77
2017-09-09T20:27:37.503Z,10.32
2017-09-09T20:30:04.173Z,9.75
2017-09-09T20:32:30.854Z,10.43
2017-09-09T20:34:57.503Z,11.73
2017-09-09T20:37:24.164Z,10.55
2017-09-09T20:39:50.851Z,10.98
2017-09-09T20:42:17.518Z,10.88
2017-09-09T20:44:44.175Z,11.00
2017-09-09T20:47:10.837Z,12.30
2017-09-09T20:49:37.516Z,11.10
2017-09-09T20:52:05.052Z,11.25
2017-09-09T20:54:31.720Z,11.43
2017-09-09T20:56:58.384Z,11.07
2017-09-09T20:59:25.055Z,10.70
2017-09-09T21:01:51.720Z,12.55
2017-09-09T21:04:18.387Z,13.32
2017-09-09T21:06:45.092Z,14.35
2017-09-09T21:09:11.759Z,14.30
2017-09-09T21:11:38.434Z,13.05
2017-09-09T21:14:05.100Z,13.50
2017-09-09T21:16:31.809Z,13.75
2017-09-09T21:18:58.482Z,13.30
2017-09-09T21:21:25.156Z,12.77
2017-09-09T21:23:51.828Z,11.07
2017-09-09T21:26:18.488Z,10.38
2017-09-09T21:28:45.150Z,11.02
2017-09-09T21:31:11.826Z,10.80
2017-09-09T21:33:38.487Z,11.18
2017-09-09T21:36:05.152Z,10.70
2017-09-09T21:38:31.868Z,12.37
2017-09-09T21:40:58.531Z,11.27
2017-09-09T21:43:25.195Z,11.98
2017-09-09T21:45:51.859Z,11.93
2017-09-09T21:48:18.520Z,10.82
2017-09-09T21:50:45.179Z,11.20
2017-09-09T21:53:11.843Z,11.57
2017-09-09T21:55:38.511Z,12.00
2017-09-09T21:58:05.176Z,10.77
2017-09-09T22:00:31.891Z,15.00
2017-09-09T22:02:58.571Z,12.57
2017-09-09T22:05:25.257Z,11.93
2017-09-09T22:07:51.923Z,12.80
2017-09-09T22:10:18.623Z,14.80
2017-09-09T22:12:45.287Z,13.15
2017-09-09T22:15:11.955Z,13.32
2017-09-09T22:17:38.643Z,12.40
2017-09-09T22:20:05.307Z,14.68
2017-09-09T22:22:31.991Z,13.88
2017-09-09T22:24:58.656Z,14.40
2017-09-09T22:27:25.343Z,14.40
2017-09-09T22:29:52.007Z,13.93
2017-09-09T22:32:18.703Z,14.02
2017-09-09T22:34:45.363Z,16.25
2017-09-09T22:37:12.071Z,12.52
2017-09-09T22:39:39.567Z,12.85
2017-09-09T22:42:06.239Z,15.57
2017-09-09T22:44:32.907Z,13.40
2017-09-09T22:46:59.571Z,14.18
2017-09-09T22:49:26.235Z,15.00
2017-09-09T22:51:52.904Z,14.18
2017-09-09T22:54:19.594Z,13.45
2017-09-09T22:56:46.264Z,14.80
2017-09-09T22:59:12.953Z,16.27
2017-09-09T23:01:39.616Z,14.87
2017-09-09T23:04:06.308Z,14.45
2017-09-09T23:06:32.972Z,15.60
2017-09-09T23:08:59.663Z,14.48
2017-09-09T23:11:26.328Z,14.63
2017-09-09T23:13:53.031Z,15.85
2017-09-09T23:16:19.700Z,14.95
2017-09-09T23:18:46.376Z,15.05
2017-09-09T23:21:13.039Z,15.00
2017-09-09T23:23:39.714Z,16.75
2017-09-09T23:26:06.384Z,16.08
2017-09-09T23:28:33.055Z,15.93
2017-09-09T23:30:59.742Z,15.68
2017-09-09T23:33:26.408Z,25.23
2017-09-09T23:35:53.096Z,19.50
2017-09-09T23:38:19.759Z,20.17
2017-09-09T23:40:46.459Z,20.30
2017-09-09T23:43:13.142Z,20.23
2017-09-09T23:45:39.870Z,16.45
2017-09-09T23:48:06.546Z,15.63
2017-09-09T23:50:33.238Z,19.60
2017-09-09T23:52:59.912Z,15.23
2017-09-09T23:55:26.590Z,15.63
2017-09-09T23:57:53.276Z,18.35
